createdAt,value
2022-11-10T00:00:29.377Z,54.54
2022-11-10T00:01:29.392Z,55.07
2022-11-10T00:02:29.363Z,53.58
2022-11-10T00:03:29.350Z,58.40
2022-11-10T00:04:29.374Z,53.72
2022-11-10T00:05:29.335Z,48.13
2022-11-10T00:06:29.432Z,61.91
2022-11-10T00:07:30.456Z,56.59
2022-11-10T00:08:30.457Z,55.70
2022-11-10T00:09:30.442Z,50.51
2022-11-10T00:10:30.441Z,47.09
2022-11-10T00:11:30.450Z,54.98
2022-11-10T00:12:30.422Z,51.45
2022-11-10T00:13:30.413Z,46.88
2022-11-10T00:14:30.410Z,53.98
2022-11-10T00:15:30.394Z,48.83
2022-11-10T00:16:30.420Z,60.68
2022-11-10T00:17:30.379Z,54.70
2022-11-10T00:18:30.368Z,54.96
2022-11-10T00:19:30.364Z,43.49
2022-11-10T00:20:30.354Z,34.77
2022-11-10T00:21:30.378Z,38.16
2022-11-10T00:22:30.338Z,62.11
2022-11-10T00:23:30.335Z,48.95
2022-11-10T00:24:30.323Z,41.13
2022-11-10T00:25:30.314Z,34.51
2022-11-10T00:26:30.332Z,35.73
2022-11-10T00:27:30.295Z,57.44
2022-11-10T00:28:30.289Z,48.48
2022-11-10T00:29:30.275Z,56.25
2022-11-10T00:30:30.279Z,48.24
2022-11-10T00:31:30.293Z,54.25
2022-11-10T00:32:30.261Z,56.42
2022-11-10T00:33:30.245Z,48.06
2022-11-10T00:34:30.241Z,36.66
2022-11-10T00:35:30.227Z,55.58
2022-11-10T00:36:30.245Z,50.87
2022-11-10T00:37:30.220Z,46.79
2022-11-10T00:38:30.209Z,44.76
2022-11-10T00:39:30.211Z,34.75
2022-11-10T00:40:30.224Z,37.58
2022-11-10T00:41:30.213Z,58.00
2022-11-10T00:42:30.173Z,46.59
2022-11-10T00:43:30.481Z,58.96
2022-11-10T00:44:30.168Z,51.28
2022-11-10T00:45:30.149Z,35.56
2022-11-10T00:46:30.180Z,34.75
2022-11-10T00:47:30.138Z,47.97
2022-11-10T00:48:30.127Z,52.15
2022-11-10T00:49:30.120Z,61.46
2022-11-10T00:50:30.110Z,51.97
2022-11-10T00:51:30.098Z,57.68
2022-11-10T00:52:30.117Z,60.76
2022-11-10T00:53:30.086Z,57.37
2022-11-10T00:54:30.079Z,43.24
2022-11-10T00:55:30.069Z,50.78
2022-11-10T00:56:30.067Z,55.29
2022-11-10T00:57:30.088Z,56.82
2022-11-10T00:58:30.044Z,63.46
2022-11-10T00:59:30.052Z,54.32
2022-11-10T01:00:30.045Z,60.41
2022-11-10T01:01:30.071Z,46.19
2022-11-10T01:02:30.046Z,51.79
2022-11-10T01:03:30.006Z,49.47
2022-11-10T01:04:30.000Z,53.84
2022-11-10T01:05:29.995Z,55.80
2022-11-10T01:06:30.011Z,58.04
2022-11-10T01:07:29.999Z,54.62
2022-11-10T01:08:29.965Z,52.65
2022-11-10T01:09:29.964Z,41.86
2022-11-10T01:10:29.958Z,43.76
2022-11-10T01:11:29.951Z,53.60
2022-11-10T01:12:29.980Z,55.27
2022-11-10T01:13:29.928Z,53.76
2022-11-10T01:14:29.923Z,43.43
2022-11-10T01:15:29.918Z,62.63
2022-11-10T01:16:29.939Z,57.36
2022-11-10T01:17:29.897Z,58.20
2022-11-10T01:18:29.896Z,63.76
2022-11-10T01:19:29.881Z,65.30
2022-11-10T01:20:29.882Z,49.94
2022-11-10T01:21:29.870Z,62.57
2022-11-10T01:22:29.880Z,53.84
2022-11-10T01:23:29.847Z,42.33
2022-11-10T01:24:29.837Z,43.00
2022-11-10T01:25:29.836Z,43.85
2022-11-10T01:26:29.823Z,43.26
2022-11-10T01:27:29.845Z,53.34
2022-11-10T01:28:29.802Z,61.74
2022-11-10T01:29:29.798Z,66.90
2022-11-10T01:30:29.787Z,60.54
2022-11-10T01:31:29.804Z,55.17
2022-11-10T01:32:29.772Z,63.89
2022-11-10T01:33:29.762Z,57.70
2022-11-10T01:34:29.761Z,61.36
2022-11-10T01:35:29.748Z,54.86
2022-11-10T01:36:29.761Z,67.54
2022-11-10T01:37:29.744Z,65.40
2022-11-10T01:38:29.718Z,62.50
2022-11-10T01:39:29.717Z,47.70
2022-11-10T01:40:29.747Z,54.34
2022-11-10T01:41:29.730Z,55.41
2022-11-10T01:42:29.713Z,64.38
2022-11-10T01:43:29.686Z,60.79
2022-11-10T01:44:29.675Z,59.54
2022-11-10T01:45:29.675Z,53.45
2022-11-10T01:46:29.688Z,51.69
2022-11-10T01:47:29.657Z,62.35
2022-11-10T01:48:29.653Z,64.77
2022-11-10T01:49:29.639Z,56.55
2022-11-10T01:50:29.630Z,63.09
2022-11-10T01:51:29.621Z,58.71
2022-11-10T01:52:29.647Z,59.23
2022-11-10T01:53:29.607Z,66.28
2022-11-10T01:54:29.592Z,51.72
2022-11-10T01:55:29.591Z,57.62
2022-11-10T01:56:29.582Z,58.82
2022-11-10T01:57:29.597Z,62.68
2022-11-10T01:58:29.565Z,51.71
2022-11-10T01:59:29.556Z,51.82
2022-11-10T02:00:29.580Z,55.56
2022-11-10T02:01:29.544Z,71.01
2022-11-10T02:02:29.560Z,64.42
2022-11-10T02:03:29.526Z,63.06
2022-11-10T02:04:29.521Z,66.85
2022-11-10T02:05:29.517Z,50.48
2022-11-10T02:06:29.578Z,59.43
2022-11-10T02:07:29.524Z,62.15
2022-11-10T02:08:29.484Z,52.75
2022-11-10T02:09:29.476Z,54.12
2022-11-10T02:10:29.477Z,45.70
2022-11-10T02:11:29.464Z,49.21
2022-11-10T02:12:29.487Z,62.92
2022-11-10T02:13:29.446Z,54.62
2022-11-10T02:14:29.440Z,59.83
2022-11-10T02:15:29.433Z,52.90
2022-11-10T02:16:29.423Z,49.19
2022-11-10T02:17:29.439Z,65.77
2022-11-10T02:18:29.411Z,57.74
2022-11-10T02:19:29.392Z,57.57
2022-11-10T02:20:29.394Z,57.29
2022-11-10T02:21:29.386Z,65.79
2022-11-10T02:22:29.404Z,57.63
2022-11-10T02:23:29.370Z,57.39
2022-11-10T02:24:29.356Z,43.68
2022-11-10T02:25:29.347Z,53.23
2022-11-10T02:26:29.344Z,66.93
2022-11-10T02:27:29.363Z,60.94
2022-11-10T02:28:29.331Z,48.46
2022-11-10T02:29:29.314Z,58.05
2022-11-10T02:30:29.313Z,52.26
2022-11-10T02:31:29.305Z,54.88
2022-11-10T02:32:29.331Z,58.75
2022-11-10T02:33:29.293Z,54.02
2022-11-10T02:34:29.279Z,53.84
2022-11-10T02:35:29.271Z,53.61
2022-11-10T02:36:29.291Z,66.46
2022-11-10T02:37:29.255Z,63.20
2022-11-10T02:38:29.251Z,55.28
2022-11-10T02:39:29.244Z,67.65
2022-11-10T02:40:29.236Z,58.39
2022-11-10T02:41:29.231Z,61.35
2022-11-10T02:42:29.249Z,50.97
2022-11-10T02:43:29.213Z,54.19
2022-11-10T02:44:29.206Z,52.27
2022-11-10T02:45:29.200Z,47.56
2022-11-10T02:46:29.194Z,44.59
2022-11-10T02:47:29.212Z,62.10
2022-11-10T02:48:29.180Z,51.52
2022-11-10T02:49:29.162Z,59.38
2022-11-10T02:50:29.162Z,52.77
2022-11-10T02:51:29.147Z,56.70
2022-11-10T02:52:29.175Z,48.51
2022-11-10T02:53:29.136Z,51.65
2022-11-10T02:54:29.127Z,49.35
2022-11-10T02:55:29.120Z,37.89
2022-11-10T02:56:29.116Z,44.27
2022-11-10T02:57:29.130Z,53.03
2022-11-10T02:58:29.099Z,63.85
2022-11-10T02:59:29.099Z,61.48
2022-11-10T03:00:29.076Z,59.73
2022-11-10T03:01:29.151Z,45.80
2022-11-10T03:02:32.200Z,53.03
2022-11-10T03:03:30.054Z,53.81
2022-11-10T03:04:29.047Z,59.13
2022-11-10T03:05:29.037Z,63.46
2022-11-10T03:06:29.032Z,64.64
2022-11-10T03:07:29.042Z,58.40
2022-11-10T03:08:29.012Z,56.20
2022-11-10T03:09:29.003Z,54.52
2022-11-10T03:10:29.001Z,64.67
2022-11-10T03:11:32.227Z,61.79
2022-11-10T03:12:30.006Z,48.10
2022-11-10T03:13:40.235Z,58.42
2022-11-10T03:14:30.959Z,60.97
2022-11-10T03:15:28.952Z,57.65
2022-11-10T03:16:28.949Z,61.60
2022-11-10T03:17:28.968Z,63.13
2022-11-10T03:18:28.926Z,56.30
2022-11-10T03:19:28.934Z,53.19
2022-11-10T03:20:28.916Z,52.48
2022-11-10T03:21:28.905Z,56.44
2022-11-10T03:22:28.922Z,62.89
2022-11-10T03:23:28.894Z,57.01
2022-11-10T03:24:28.882Z,59.84
2022-11-10T03:25:28.865Z,59.13
2022-11-10T03:26:28.859Z,58.07
2022-11-10T03:27:28.884Z,56.90
2022-11-10T03:28:28.850Z,59.89
2022-11-10T03:29:28.843Z,56.14
2022-11-10T03:30:28.816Z,60.06
2022-11-10T03:31:29.821Z,58.94
2022-11-10T03:32:28.824Z,51.21
2022-11-10T03:33:28.830Z,53.71
2022-11-10T03:34:31.776Z,48.43
2022-11-10T03:35:29.799Z,59.09
2022-11-10T03:36:28.783Z,62.88
2022-11-10T03:37:28.776Z,60.74
2022-11-10T03:38:28.796Z,63.08
2022-11-10T03:39:28.755Z,58.36
2022-11-10T03:40:28.755Z,64.23
2022-11-10T03:41:28.757Z,60.27
2022-11-10T03:42:28.735Z,58.21
2022-11-10T03:43:28.759Z,59.19
2022-11-10T03:44:28.728Z,58.70
2022-11-10T03:45:28.720Z,60.34
2022-11-10T03:46:28.706Z,57.04
2022-11-10T03:47:28.700Z,54.66
2022-11-10T03:48:28.713Z,54.04
2022-11-10T03:49:28.684Z,56.60
2022-11-10T03:50:28.674Z,53.94
2022-11-10T03:51:28.663Z,56.27
2022-11-10T03:52:28.654Z,52.53
2022-11-10T03:53:28.671Z,61.92
2022-11-10T03:54:28.644Z,63.22
2022-11-10T03:55:28.630Z,58.24
2022-11-10T03:56:28.623Z,57.52
2022-11-10T03:57:28.656Z,56.76
2022-11-10T03:58:28.611Z,64.65
2022-11-10T03:59:28.607Z,59.90
2022-11-10T04:00:28.599Z,59.05
2022-11-10T04:01:28.647Z,58.27
2022-11-10T04:02:28.606Z,57.16
2022-11-10T04:03:28.578Z,52.63
2022-11-10T04:04:28.562Z,60.03
2022-11-10T04:05:28.559Z,64.19
2022-11-10T04:06:28.553Z,60.76
2022-11-10T04:07:28.548Z,57.88
2022-11-10T04:08:28.561Z,55.00
2022-11-10T04:09:28.529Z,61.28
2022-11-10T04:10:28.524Z,62.19
2022-11-10T04:11:28.509Z,62.33
2022-11-10T04:12:28.507Z,60.27
2022-11-10T04:13:28.522Z,62.49
2022-11-10T04:14:28.480Z,59.48
2022-11-10T04:15:28.475Z,59.61
2022-11-10T04:16:28.472Z,62.36
2022-11-10T04:17:28.468Z,65.65
2022-11-10T04:18:28.486Z,63.97
2022-11-10T04:19:28.447Z,64.96
2022-11-10T04:20:28.445Z,65.86
2022-11-10T04:21:28.432Z,62.24
2022-11-10T04:22:28.437Z,62.01
2022-11-10T04:23:28.444Z,66.05
2022-11-10T04:24:28.414Z,62.22
2022-11-10T04:25:28.396Z,64.83
2022-11-10T04:26:28.447Z,60.13
2022-11-10T04:27:28.381Z,60.81
2022-11-10T04:28:28.408Z,64.07
2022-11-10T04:29:28.374Z,62.28
2022-11-10T04:30:28.361Z,66.25
2022-11-10T04:31:28.349Z,64.50
2022-11-10T04:32:28.346Z,64.66
2022-11-10T04:33:28.364Z,60.88
2022-11-10T04:34:28.336Z,65.46
2022-11-10T04:35:28.326Z,63.25
2022-11-10T04:36:28.310Z,67.13
2022-11-10T04:37:28.306Z,60.93
2022-11-10T04:38:28.326Z,63.89
2022-11-10T04:39:28.289Z,63.92
2022-11-10T04:40:28.284Z,64.09
2022-11-10T04:41:28.335Z,63.19
2022-11-10T04:42:28.266Z,65.80
2022-11-10T04:43:28.287Z,62.24
2022-11-10T04:44:28.249Z,64.93
2022-11-10T04:45:28.231Z,65.06
2022-11-10T04:46:29.238Z,67.47
2022-11-10T04:47:28.228Z,67.33
2022-11-10T04:48:28.258Z,66.36
2022-11-10T04:49:28.221Z,67.90
2022-11-10T04:50:28.213Z,65.73
2022-11-10T04:51:28.400Z,63.90
2022-11-10T04:52:28.185Z,63.37
2022-11-10T04:53:29.204Z,66.64
2022-11-10T04:54:28.175Z,65.17
2022-11-10T04:55:28.161Z,68.22
2022-11-10T04:56:28.189Z,67.14
2022-11-10T04:57:28.147Z,68.67
2022-11-10T04:58:28.167Z,70.30
2022-11-10T04:59:28.136Z,61.84
2022-11-10T05:00:28.147Z,60.03
2022-11-10T05:01:28.119Z,63.05
2022-11-10T05:02:28.109Z,62.83
2022-11-10T05:03:28.130Z,64.80
2022-11-10T05:04:28.097Z,61.92
2022-11-10T05:05:28.105Z,65.42
2022-11-10T05:06:28.074Z,64.97
2022-11-10T05:07:28.068Z,66.48
2022-11-10T05:08:28.089Z,61.22
2022-11-10T05:09:28.056Z,65.02
2022-11-10T05:10:28.049Z,63.95
2022-11-10T05:11:28.044Z,62.06
2022-11-10T05:12:28.028Z,61.73
2022-11-10T05:13:28.051Z,63.20
2022-11-10T05:14:28.018Z,62.91
2022-11-10T05:15:28.012Z,62.77
2022-11-10T05:16:27.998Z,59.88
2022-11-10T05:17:27.988Z,64.07
2022-11-10T05:18:28.012Z,61.67
2022-11-10T05:19:27.963Z,59.28
2022-11-10T05:20:28.962Z,62.90
2022-11-10T05:21:27.960Z,65.79
2022-11-10T05:22:27.943Z,64.32
2022-11-10T05:23:27.970Z,63.68
2022-11-10T05:24:27.932Z,63.79
2022-11-10T05:25:27.918Z,63.77
2022-11-10T05:26:27.917Z,65.69
2022-11-10T05:27:27.910Z,63.08
2022-11-10T05:28:27.922Z,64.85
2022-11-10T05:29:27.889Z,56.39
2022-11-10T05:30:27.884Z,66.53
2022-11-10T05:31:27.871Z,61.19
2022-11-10T05:32:27.869Z,63.60
2022-11-10T05:33:27.894Z,67.48
2022-11-10T05:34:27.854Z,66.02
2022-11-10T05:35:27.847Z,62.29
2022-11-10T05:36:27.852Z,64.16
2022-11-10T05:37:27.838Z,70.16
2022-11-10T05:38:27.852Z,66.24
2022-11-10T05:39:27.816Z,65.36
2022-11-10T05:40:27.811Z,62.37
2022-11-10T05:41:27.800Z,69.05
2022-11-10T05:42:27.798Z,69.58
2022-11-10T05:43:27.813Z,67.69
2022-11-10T05:44:27.776Z,67.19
2022-11-10T05:45:27.775Z,66.68
2022-11-10T05:46:27.764Z,69.36
2022-11-10T05:47:27.753Z,66.40
2022-11-10T05:48:27.771Z,66.38
2022-11-10T05:49:27.742Z,66.05
2022-11-10T05:50:27.734Z,65.28
2022-11-10T05:51:27.728Z,64.60
2022-11-10T05:52:27.741Z,68.71
2022-11-10T05:53:27.705Z,68.00
2022-11-10T05:54:27.728Z,67.18
2022-11-10T05:55:27.697Z,66.91
2022-11-10T05:56:27.679Z,66.25
2022-11-10T05:57:27.672Z,66.04
2022-11-10T05:58:27.666Z,64.66
2022-11-10T05:59:27.684Z,65.75
2022-11-10T06:00:27.647Z,65.12
2022-11-10T06:01:28.646Z,64.74
2022-11-10T06:02:27.637Z,65.18
2022-11-10T06:03:28.062Z,67.03
2022-11-10T06:04:27.643Z,66.83
2022-11-10T06:05:31.105Z,60.64
2022-11-10T06:06:28.603Z,65.01
2022-11-10T06:07:27.588Z,63.72
2022-11-10T06:08:28.586Z,63.04
2022-11-10T06:09:27.608Z,64.41
2022-11-10T06:10:27.574Z,65.98
2022-11-10T06:11:27.570Z,66.39
2022-11-10T06:12:27.564Z,66.21
2022-11-10T06:13:27.547Z,66.83
2022-11-10T06:14:27.572Z,65.62
2022-11-10T06:15:27.535Z,68.65
2022-11-10T06:16:27.533Z,66.06
2022-11-10T06:17:27.517Z,66.09
2022-11-10T06:18:27.505Z,65.64
2022-11-10T06:19:27.525Z,68.12
2022-11-10T06:20:27.494Z,62.27
2022-11-10T06:21:27.480Z,64.17
2022-11-10T06:22:27.475Z,64.92
2022-11-10T06:23:27.470Z,68.75
2022-11-10T06:24:27.497Z,65.87
2022-11-10T06:25:27.456Z,68.60
2022-11-10T06:26:27.446Z,65.58
2022-11-10T06:27:27.436Z,64.80
2022-11-10T06:28:27.431Z,64.73
2022-11-10T06:29:27.446Z,66.54
2022-11-10T06:30:27.414Z,68.18
2022-11-10T06:31:27.405Z,67.88
2022-11-10T06:32:27.396Z,68.41
2022-11-10T06:33:27.386Z,67.84
2022-11-10T06:34:27.404Z,67.71
2022-11-10T06:35:27.372Z,66.21
2022-11-10T06:36:27.365Z,68.59
2022-11-10T06:37:27.355Z,65.51
2022-11-10T06:38:27.361Z,65.72
2022-11-10T06:39:27.366Z,65.09
2022-11-10T06:40:27.333Z,65.55
2022-11-10T06:41:27.323Z,67.59
2022-11-10T06:42:27.316Z,68.15
2022-11-10T06:43:27.310Z,66.91
2022-11-10T06:44:27.323Z,68.52
2022-11-10T06:45:27.294Z,63.63
2022-11-10T06:46:27.287Z,65.54
2022-11-10T06:47:27.277Z,63.00
2022-11-10T06:48:27.272Z,65.87
2022-11-10T06:49:27.316Z,63.93
2022-11-10T06:50:27.252Z,63.04
2022-11-10T06:51:27.245Z,68.82
2022-11-10T06:52:27.236Z,73.36
2022-11-10T06:53:27.388Z,66.58
2022-11-10T06:54:28.246Z,68.82
2022-11-10T06:55:27.213Z,59.79
2022-11-10T06:56:27.205Z,62.77
2022-11-10T06:57:27.205Z,66.15
2022-11-10T06:58:27.191Z,64.07
2022-11-10T06:59:27.208Z,62.74
2022-11-10T07:00:27.177Z,65.97
2022-11-10T07:01:27.247Z,64.64
2022-11-10T07:02:27.158Z,60.53
2022-11-10T07:03:27.154Z,66.38
2022-11-10T07:04:27.172Z,61.88
2022-11-10T07:05:27.137Z,57.03
2022-11-10T07:06:27.132Z,66.59
2022-11-10T07:07:27.115Z,61.64
2022-11-10T07:08:27.111Z,62.68
2022-11-10T07:09:27.137Z,62.30
2022-11-10T07:10:27.095Z,65.70
2022-11-10T07:11:27.101Z,62.31
2022-11-10T07:12:27.086Z,63.10
2022-11-10T07:13:27.074Z,60.95
2022-11-10T07:14:27.063Z,61.28
2022-11-10T07:15:27.080Z,65.47
2022-11-10T07:16:27.052Z,62.23
2022-11-10T07:17:27.039Z,59.99
2022-11-10T07:18:27.033Z,59.97
2022-11-10T07:19:27.025Z,65.12
2022-11-10T07:20:27.042Z,63.66
2022-11-10T07:21:27.010Z,65.01
2022-11-10T07:22:26.996Z,64.32
2022-11-10T07:23:26.986Z,63.47
2022-11-10T07:24:26.981Z,62.54
2022-11-10T07:25:27.001Z,65.74
2022-11-10T07:26:26.968Z,62.57
2022-11-10T07:27:26.968Z,64.09
2022-11-10T07:28:28.447Z,64.73
2022-11-10T07:29:27.939Z,67.07
2022-11-10T07:30:26.954Z,65.01
2022-11-10T07:31:26.925Z,61.99
2022-11-10T07:32:26.917Z,58.39
2022-11-10T07:33:26.906Z,63.37
2022-11-10T07:34:26.899Z,59.93
2022-11-10T07:35:26.917Z,63.81
2022-11-10T07:36:26.884Z,63.68
2022-11-10T07:37:26.877Z,59.85
2022-11-10T07:38:26.865Z,60.86
2022-11-10T07:39:26.862Z,61.17
2022-11-10T07:40:26.877Z,60.28
2022-11-10T07:41:26.841Z,61.22
2022-11-10T07:42:26.840Z,61.53
2022-11-10T07:43:26.827Z,63.21
2022-11-10T07:44:26.849Z,61.37
2022-11-10T07:45:26.813Z,59.07
2022-11-10T07:46:26.809Z,59.90
2022-11-10T07:47:26.801Z,59.30
2022-11-10T07:48:26.788Z,60.19
2022-11-10T07:49:26.809Z,61.72
2022-11-10T07:50:26.799Z,61.12
2022-11-10T07:51:26.768Z,62.13
2022-11-10T07:52:26.761Z,61.71
2022-11-10T07:53:26.757Z,57.70
2022-11-10T07:54:26.767Z,58.65
2022-11-10T07:55:26.734Z,63.37
2022-11-10T07:56:26.734Z,61.24
2022-11-10T07:57:26.724Z,61.97
2022-11-10T07:58:26.715Z,58.79
2022-11-10T07:59:26.737Z,60.66
2022-11-10T08:00:26.744Z,60.33
2022-11-10T08:01:26.724Z,60.78
2022-11-10T08:02:26.685Z,57.18
2022-11-10T08:03:26.796Z,57.65
2022-11-10T08:04:26.691Z,59.38
2022-11-10T08:05:26.661Z,60.03
2022-11-10T08:06:27.220Z,63.74
2022-11-10T08:07:26.724Z,60.43
2022-11-10T08:08:26.641Z,58.88
2022-11-10T08:09:26.651Z,60.47
2022-11-10T08:10:26.619Z,59.39
2022-11-10T08:11:26.616Z,59.66
2022-11-10T08:12:29.860Z,59.80
2022-11-10T08:13:27.598Z,58.89
2022-11-10T08:14:26.615Z,60.02
2022-11-10T08:15:26.586Z,60.74
2022-11-10T08:16:26.573Z,58.45
2022-11-10T08:17:26.567Z,56.22
2022-11-10T08:18:30.825Z,62.27
2022-11-10T08:19:28.574Z,59.87
2022-11-10T08:20:26.633Z,60.71
2022-11-10T08:21:26.538Z,56.72
2022-11-10T08:22:26.530Z,58.54
2022-11-10T08:23:26.511Z,56.70
2022-11-10T08:24:27.541Z,56.10
2022-11-10T08:25:31.616Z,58.10
2022-11-10T08:26:28.490Z,61.33
2022-11-10T08:27:26.486Z,55.62
2022-11-10T08:28:26.481Z,59.49
2022-11-10T08:29:26.498Z,59.71
2022-11-10T08:30:26.507Z,59.62
2022-11-10T08:31:26.453Z,59.99
2022-11-10T08:32:26.460Z,60.19
2022-11-10T08:33:26.625Z,58.63
2022-11-10T08:34:26.453Z,58.68
2022-11-10T08:35:26.454Z,61.64
2022-11-10T08:36:26.422Z,60.83
2022-11-10T08:37:26.411Z,58.60
2022-11-10T08:38:26.403Z,60.11
2022-11-10T08:39:38.521Z,60.78
2022-11-10T08:40:28.475Z,59.73
2022-11-10T08:41:26.381Z,57.85
2022-11-10T08:42:26.374Z,57.94
2022-11-10T08:43:26.461Z,58.40
2022-11-10T08:44:26.356Z,58.77
2022-11-10T08:45:26.361Z,59.07
2022-11-10T08:46:27.340Z,60.85
2022-11-10T08:47:26.327Z,58.69
2022-11-10T08:48:26.321Z,58.93
2022-11-10T08:49:26.308Z,58.50
2022-11-10T08:50:26.331Z,59.51
2022-11-10T08:51:26.299Z,61.34
2022-11-10T08:52:26.291Z,58.81
2022-11-10T08:53:26.520Z,58.36
2022-11-10T08:54:26.278Z,54.53
2022-11-10T08:55:26.291Z,59.21
2022-11-10T08:56:26.260Z,56.70
2022-11-10T08:57:26.250Z,57.99
2022-11-10T08:58:26.245Z,54.63
2022-11-10T08:59:26.234Z,53.59
2022-11-10T09:00:26.256Z,57.62
2022-11-10T09:01:26.217Z,60.27
2022-11-10T09:02:26.210Z,61.76
2022-11-10T09:03:26.685Z,58.31
2022-11-10T09:04:26.228Z,54.54
2022-11-10T09:05:26.210Z,62.61
2022-11-10T09:06:26.180Z,60.44
2022-11-10T09:07:26.167Z,59.45
2022-11-10T09:08:26.177Z,61.83
2022-11-10T09:09:26.158Z,59.39
2022-11-10T09:10:26.171Z,61.57
2022-11-10T09:11:26.140Z,57.48
2022-11-10T09:12:26.130Z,60.24
2022-11-10T09:13:29.801Z,53.90
2022-11-10T09:14:27.113Z,58.56
2022-11-10T09:15:26.136Z,60.64
2022-11-10T09:16:26.100Z,60.36
2022-11-10T09:17:26.091Z,60.28
2022-11-10T09:18:26.087Z,57.15
2022-11-10T09:19:26.151Z,58.32
2022-11-10T09:20:26.092Z,53.80
2022-11-10T09:21:26.057Z,58.92
2022-11-10T09:22:26.051Z,56.85
2022-11-10T09:23:26.183Z,58.18
2022-11-10T09:24:31.134Z,56.46
2022-11-10T09:25:28.051Z,58.77
2022-11-10T09:26:26.019Z,57.92
2022-11-10T09:27:26.018Z,59.23
2022-11-10T09:28:26.004Z,57.65
2022-11-10T09:29:26.005Z,59.34
2022-11-10T09:30:26.019Z,58.01
2022-11-10T09:31:25.987Z,57.65
2022-11-10T09:32:25.976Z,55.72
2022-11-10T09:33:26.327Z,58.10
2022-11-10T09:34:25.967Z,58.18
2022-11-10T09:35:25.980Z,56.74
2022-11-10T09:36:25.949Z,58.43
2022-11-10T09:37:25.937Z,59.23
2022-11-10T09:38:25.983Z,56.18
2022-11-10T09:39:25.919Z,55.38
2022-11-10T09:40:25.962Z,57.16
2022-11-10T09:41:25.904Z,57.40
2022-11-10T09:42:25.899Z,57.67
2022-11-10T09:43:25.893Z,59.46
2022-11-10T09:44:25.880Z,61.99
2022-11-10T09:45:25.903Z,59.22
2022-11-10T09:46:25.862Z,58.29
2022-11-10T09:48:27.851Z,57.96
2022-11-10T09:49:25.843Z,57.77
2022-11-10T09:50:25.873Z,55.87
2022-11-10T09:51:25.852Z,57.61
2022-11-10T09:52:25.817Z,53.22
2022-11-10T09:53:25.819Z,52.68
2022-11-10T09:54:25.805Z,51.02
2022-11-10T09:55:25.839Z,60.94
2022-11-10T09:56:25.812Z,60.04
2022-11-10T09:57:25.786Z,59.73
2022-11-10T09:58:25.775Z,56.88
2022-11-10T09:59:25.763Z,57.68
2022-11-10T10:00:25.821Z,60.17
2022-11-10T10:01:26.811Z,58.89
2022-11-10T10:02:25.737Z,55.94
2022-11-10T10:03:25.730Z,59.75
2022-11-10T10:04:25.722Z,58.46
2022-11-10T10:05:25.751Z,59.44
2022-11-10T10:06:30.550Z,54.85
2022-11-10T10:07:26.743Z,56.81
2022-11-10T10:08:25.751Z,53.86
2022-11-10T10:09:25.681Z,59.79
2022-11-10T10:10:25.753Z,60.32
2022-11-10T10:11:25.667Z,55.34
2022-11-10T10:12:25.650Z,56.80
2022-11-10T10:13:25.647Z,58.73
2022-11-10T10:14:25.641Z,55.08
2022-11-10T10:15:26.005Z,53.19
2022-11-10T10:16:26.648Z,54.77
2022-11-10T10:17:27.125Z,54.68
2022-11-10T10:18:26.607Z,57.64
2022-11-10T10:19:25.599Z,59.28
2022-11-10T10:20:25.632Z,57.73
2022-11-10T10:21:25.608Z,60.14
2022-11-10T10:22:25.573Z,58.42
2022-11-10T10:23:46.825Z,55.85
2022-11-10T10:24:27.554Z,56.47
2022-11-10T10:25:25.550Z,59.41
2022-11-10T10:26:25.564Z,60.19
2022-11-10T10:27:25.540Z,58.39
2022-11-10T10:28:25.840Z,57.67
2022-11-10T10:29:25.518Z,57.98
2022-11-10T10:30:25.508Z,60.01
2022-11-10T10:31:25.524Z,56.03
2022-11-10T10:32:25.599Z,58.80
2022-11-10T10:33:25.484Z,56.62
2022-11-10T10:34:25.480Z,56.83
2022-11-10T10:35:25.504Z,59.86
2022-11-10T10:36:25.488Z,56.37
2022-11-10T10:37:25.450Z,56.64
2022-11-10T10:38:25.596Z,58.26
2022-11-10T10:39:25.436Z,56.88
2022-11-10T10:40:25.465Z,53.98
2022-11-10T10:41:25.422Z,56.74
2022-11-10T10:42:25.412Z,58.23
2022-11-10T10:43:25.440Z,61.69
2022-11-10T10:44:25.401Z,57.22
2022-11-10T10:45:25.451Z,55.08
2022-11-10T10:46:25.405Z,61.24
2022-11-10T10:47:25.366Z,56.93
2022-11-10T10:48:25.361Z,58.22
2022-11-10T10:49:30.178Z,55.52
2022-11-10T10:50:27.378Z,54.66
2022-11-10T10:51:25.351Z,57.56
2022-11-10T10:52:25.501Z,57.26
2022-11-10T10:53:25.324Z,58.65
2022-11-10T10:54:25.317Z,60.71
2022-11-10T10:55:25.305Z,60.83
2022-11-10T10:56:25.321Z,58.74
2022-11-10T10:57:25.294Z,56.13
2022-11-10T10:58:25.861Z,57.96
2022-11-10T10:59:25.277Z,58.60
2022-11-10T11:00:25.272Z,60.77
2022-11-10T11:01:25.371Z,60.42
2022-11-10T11:02:25.253Z,54.30
2022-11-10T11:03:25.251Z,54.06
2022-11-10T11:04:25.241Z,58.73
2022-11-10T11:05:25.264Z,58.60
2022-11-10T11:06:25.261Z,57.15
2022-11-10T11:07:25.215Z,55.72
2022-11-10T11:08:25.462Z,57.24
2022-11-10T11:09:25.202Z,55.42
2022-11-10T11:10:25.189Z,56.75
2022-11-10T11:11:25.221Z,55.62
2022-11-10T11:12:25.174Z,59.38
2022-11-10T11:13:25.181Z,57.92
2022-11-10T11:14:25.158Z,56.29
2022-11-10T11:15:25.153Z,47.51
2022-11-10T11:16:25.171Z,51.25
2022-11-10T11:17:25.202Z,56.57
2022-11-10T11:18:25.438Z,58.48
2022-11-10T11:19:25.123Z,56.78
2022-11-10T11:20:25.111Z,54.78
2022-11-10T11:21:25.138Z,56.86
2022-11-10T11:22:25.127Z,60.56
2022-11-10T11:23:25.087Z,59.80
2022-11-10T11:24:25.079Z,55.61
2022-11-10T11:25:25.074Z,58.09
2022-11-10T11:26:25.065Z,58.74
2022-11-10T11:27:25.080Z,59.60
2022-11-10T11:28:25.343Z,56.35
2022-11-10T11:29:25.046Z,54.39
2022-11-10T11:30:25.035Z,58.43
2022-11-10T11:31:25.026Z,58.57
2022-11-10T11:32:25.043Z,56.78
2022-11-10T11:33:25.011Z,58.58
2022-11-10T11:34:24.997Z,55.93
2022-11-10T11:35:24.993Z,57.62
2022-11-10T11:36:25.004Z,58.14
2022-11-10T11:37:24.995Z,56.28
2022-11-10T11:38:25.307Z,56.45
2022-11-10T11:39:24.962Z,54.80
2022-11-10T11:40:24.956Z,58.54
2022-11-10T11:41:24.942Z,59.05
2022-11-10T11:42:24.960Z,60.36
2022-11-10T11:43:24.931Z,56.39
2022-11-10T11:44:24.922Z,57.55
2022-11-10T11:45:25.004Z,58.19
2022-11-10T11:46:24.909Z,56.38
2022-11-10T11:47:24.927Z,56.64
2022-11-10T11:48:25.384Z,57.52
2022-11-10T11:49:24.887Z,59.21
2022-11-10T11:50:24.885Z,61.42
2022-11-10T11:51:24.869Z,57.75
2022-11-10T11:52:24.883Z,54.23
2022-11-10T11:53:24.851Z,56.45
2022-11-10T11:54:24.844Z,53.67
2022-11-10T11:55:24.838Z,58.59
2022-11-10T11:56:24.824Z,56.13
2022-11-10T11:57:24.844Z,51.69
2022-11-10T11:58:25.268Z,62.80
2022-11-10T11:59:24.802Z,56.05
2022-11-10T12:00:24.802Z,58.30
2022-11-10T12:01:24.787Z,53.60
2022-11-10T12:02:24.835Z,59.02
2022-11-10T12:03:24.772Z,54.30
2022-11-10T12:04:24.766Z,56.14
2022-11-10T12:05:24.753Z,59.16
2022-11-10T12:06:24.739Z,61.06
2022-11-10T12:07:24.761Z,71.38
2022-11-10T12:08:26.706Z,59.09
2022-11-10T12:09:24.723Z,58.08
2022-11-10T12:10:24.714Z,60.73
2022-11-10T12:11:24.702Z,58.24
2022-11-10T12:12:24.722Z,57.69
2022-11-10T12:13:24.695Z,57.79
2022-11-10T12:14:24.688Z,58.16
2022-11-10T12:15:24.672Z,57.09
2022-11-10T12:16:24.666Z,58.92
2022-11-10T12:17:24.682Z,54.93
2022-11-10T12:18:24.854Z,59.44
2022-11-10T12:19:24.646Z,60.79
2022-11-10T12:20:24.649Z,60.85
2022-11-10T12:21:24.632Z,58.83
2022-11-10T12:22:24.715Z,53.67
2022-11-10T12:23:24.618Z,61.31
2022-11-10T12:24:24.608Z,54.07
2022-11-10T12:25:24.596Z,56.34
2022-11-10T12:26:24.595Z,59.30
2022-11-10T12:27:24.623Z,58.13
2022-11-10T12:28:24.872Z,59.33
2022-11-10T12:29:24.570Z,60.15
2022-11-10T12:30:24.564Z,57.33
2022-11-10T12:31:24.554Z,56.18
2022-11-10T12:32:24.542Z,56.29
2022-11-10T12:33:24.567Z,58.71
2022-11-10T12:34:24.526Z,55.13
2022-11-10T12:35:24.567Z,55.68
2022-11-10T12:36:24.511Z,57.91
2022-11-10T12:37:27.803Z,59.65
2022-11-10T12:38:25.653Z,59.03
2022-11-10T12:39:24.502Z,55.34
2022-11-10T12:40:24.480Z,53.52
2022-11-10T12:41:24.466Z,54.56
2022-11-10T12:42:24.485Z,52.04
2022-11-10T12:43:24.951Z,58.31
2022-11-10T12:44:24.445Z,55.38
2022-11-10T12:45:24.439Z,55.02
2022-11-10T12:46:24.430Z,55.87
2022-11-10T12:47:24.444Z,56.18
2022-11-10T12:48:24.687Z,59.06
2022-11-10T12:49:24.405Z,58.38
2022-11-10T12:50:24.397Z,56.31
2022-11-10T12:51:24.395Z,57.29
2022-11-10T12:52:24.427Z,56.66
2022-11-10T12:53:24.372Z,57.71